Lake Kivu — D5DX4 — position and weather

sailwx.info

Track history (hours):
 
Tides and Currents Weather Stations Pressure Air Temp Water Temp Dewpoint Dewpoint Depression Visibility Wind Speed Wind Dir Waves Ship Positions

Lake Kivu

Last reported at 2018-Jun-16 00:41 UTC. Time now 2018-Jun-21 04:45 UTC.
Position N 37°36' E 024°11'.

Length 183 m; draft 8.7 m.

Type: Cargo ship. MMSI: 635961349.

Date/timePositionNaut miles runAvg speedWind from/ knotsBaromVisibWave heightAir tempDewpointWater temp
2018-Jun-16 00:41N 37°36' E 024°11'38515.2
2018-Jun-14 23:18N 37°46' E 016°05'2217.9
2018-Jun-14 22:02N 37°56' E 015°39'218.0
2018-Jun-14 21:56N 37°58' E 015°38'818.1
2018-Jun-14 21:30N 38°05' E 015°35'816.1
2018-Jun-14 21:00N 38°13' E 015°36'713.6
2018-Jun-14 20:30N 38°19' E 015°40'612.0
2018-Jun-14 20:01N 38°25' E 015°37'815.1
2018-Jun-14 19:30N 38°32' E 015°33'815.5
2018-Jun-14 19:00N 38°39' E 015°30'10118.4
2018-Jun-14 13:32N 40°14' E 014°45'117.7
2018-Jun-14 13:30N 40°14' E 014°45'918.3
2018-Jun-14 13:00N 40°23' E 014°44'918.3
2018-Jun-14 12:31N 40°32' E 014°43'4 0.4
2018-Jun-14 02:58N 40°36' E 014°43'5 9.8
2018-Jun-14 02:30N 40°32' E 014°43'1 2.7
2018-Jun-14 02:00N 40°31' E 014°44'0 0.8
2018-Jun-14 01:30N 40°30' E 014°44'0 0.8
2018-Jun-14 01:00N 40°30' E 014°44'0 0.8
2018-Jun-14 00:30N 40°30' E 014°44'0 0.5
2018-Jun-14 00:00N 40°29' E 014°44'0 0.4
2018-Jun-13 23:30N 40°29' E 014°44'0 0.4
2018-Jun-13 22:59N 40°29' E 014°44'0 0.4
2018-Jun-13 22:30N 40°29' E 014°43'0 0.2
2018-Jun-13 22:00N 40°29' E 014°43'0 0.4
2018-Jun-13 21:30N 40°29' E 014°43'0 0.7
2018-Jun-13 21:00N 40°30' E 014°43'0 0.7
2018-Jun-13 20:30N 40°30' E 014°42'0 0.5
2018-Jun-13 20:00N 40°30' E 014°42'0 0.6
2018-Jun-13 19:30N 40°30' E 014°42'0 0.8
2018-Jun-13 19:00N 40°30' E 014°41'1 1.4
2018-Jun-13 18:30N 40°30' E 014°40'1 1.4
2018-Jun-13 18:00N 40°31' E 014°40'1 1.5
2018-Jun-13 17:30N 40°31' E 014°39'1 1.5
2018-Jun-13 17:00N 40°30' E 014°38'1 1.2
2018-Jun-13 16:30N 40°30' E 014°37'1 1.1
2018-Jun-13 15:57N 40°29' E 014°37'1 1.2
2018-Jun-13 15:30N 40°29' E 014°37'3 5.2
2018-Jun-13 15:00N 40°31' E 014°39'613.0
2018-Jun-13 14:30N 40°26' E 014°35'815.7
2018-Jun-13 14:00N 40°18' E 014°31'815.6
2018-Jun-13 13:30N 40°11' E 014°28'714.6
2018-Jun-13 13:00N 40°09' E 014°19'815.7
2018-Jun-13 12:30N 40°08' E 014°09'915.6
2018-Jun-13 11:57N 40°10' E 013°58'715.3
2018-Jun-13 11:30N 40°10' E 013°49'45615.4
2018-Jun-12 05:51N 38°56' E 004°05'2618.6
2018-Jun-12 04:28N 38°58' E 003°32'2018.5
2018-Jun-12 03:23N 38°59' E 003°06'818.2
2018-Jun-12 02:58N 38°60' E 002°56'818.7
2018-Jun-12 02:30N 39°02' E 002°46'918.4
2018-Jun-12 02:00N 39°04' E 002°34'918.4
2018-Jun-12 01:30N 39°06' E 002°23'918.7
2018-Jun-12 01:00N 39°08' E 002°11'1018.8
2018-Jun-12 00:30N 39°10' E 001°59'1018.9
2018-Jun-11 23:59N 39°13' E 001°47'918.7
2018-Jun-11 23:30N 39°15' E 001°35'918.9
2018-Jun-11 23:00N 39°16' E 001°24'1118.9
2018-Jun-11 22:27N 39°18' E 001°10'6518.5
2018-Jun-11 18:55N 39°26' W 000°14'4 9.6
2018-Jun-11 18:30N 39°26' W 000°19'0 0.4
2018-Jun-11 17:57N 39°26' W 000°18'0 0.0
2018-Jun-11 17:24N 39°26' W 000°18'0 0.0
2018-Jun-11 17:00N 39°26' W 000°18'0 0.0
2018-Jun-11 16:27N 39°26' W 000°18'0 0.0
2018-Jun-11 16:00N 39°26' W 000°18'0 0.0
2018-Jun-11 15:27N 39°26' W 000°18'0 0.0
2018-Jun-11 15:00N 39°26' W 000°18'0 0.0
2018-Jun-11 14:27N 39°26' W 000°18'0 0.0
2018-Jun-11 14:00N 39°26' W 000°18'0 0.0
2018-Jun-11 13:30N 39°26' W 000°18'0 0.0
2018-Jun-11 13:00N 39°26' W 000°18'0 0.0
2018-Jun-11 12:30N 39°26' W 000°18'0 0.0
2018-Jun-11 11:57N 39°26' W 000°18'0 0.0
2018-Jun-11 11:30N 39°26' W 000°18'0 0.1
2018-Jun-11 11:00N 39°26' W 000°18'2 4.6
2018-Jun-11 10:30N 39°25' W 000°16'7712.7
2018-Jun-11 04:29N 38°09' W 000°01'816.6
2018-Jun-11 04:00N 38°03' W 000°08'816.7
2018-Jun-11 03:30N 37°55' W 000°13'816.6
2018-Jun-11 03:00N 37°48' W 000°18'816.6
2018-Jun-11 02:30N 37°41' W 000°24'816.3
2018-Jun-11 02:00N 37°35' W 000°30'816.6
2018-Jun-11 01:30N 37°28' W 000°37'816.8
2018-Jun-11 01:00N 37°23' W 000°45'816.6
2018-Jun-11 00:30N 37°17' W 000°53'816.9
2018-Jun-11 00:00N 37°12' W 001°01'816.8
2018-Jun-10 23:31N 37°06' W 001°08'916.8
2018-Jun-10 22:59N 37°00' W 001°17'19416.3
2018-Jun-10 11:05N 36°01' W 005°07'220.4
2018-Jun-10 11:00N 36°01' W 005°09'1020.3
2018-Jun-10 10:31N 35°59' W 005°21'21915.2
2018-Jun-09 20:07N 37°36' W 009°26'219.1
2018-Jun-09 20:00N 37°38' W 009°25'1019.1
2018-Jun-09 19:30N 37°47' W 009°21'1019.3
2018-Jun-09 19:00N 37°55' W 009°16'1019.3
2018-Jun-09 18:30N 38°04' W 009°11'1018.9
2018-Jun-09 18:00N 38°13' W 009°06'918.4
2018-Jun-09 17:30N 38°21' W 009°02'612.3
2018-Jun-09 17:00N 38°27' W 008°58'611.5
2018-Jun-09 16:30N 38°31' W 008°53'1 1.4
2018-Jun-09 15:59N 38°31' W 008°52'0 0.0
2018-Jun-09 15:28N 38°31' W 008°52'0 0.0
2018-Jun-09 14:28N 38°31' W 008°52'0 0.0
2018-Jun-09 13:58N 38°31' W 008°52'0 0.0
2018-Jun-09 13:28N 38°31' W 008°52'0 0.0
2018-Jun-09 12:58N 38°31' W 008°52'0 0.0
2018-Jun-09 12:28N 38°31' W 008°52'0 0.0
2018-Jun-09 11:58N 38°31' W 008°52'0 0.0
2018-Jun-09 11:28N 38°31' W 008°52'0 0.0
2018-Jun-09 10:58N 38°31' W 008°52'0 0.0
2018-Jun-09 10:28N 38°31' W 008°52'0 0.0
2018-Jun-09 09:58N 38°31' W 008°52'0 0.0
2018-Jun-09 09:28N 38°31' W 008°52'0 0.0
2018-Jun-09 08:58N 38°31' W 008°52'0 0.0
2018-Jun-09 08:28N 38°31' W 008°52'0 0.0
2018-Jun-09 07:58N 38°31' W 008°52'0 0.0
2018-Jun-09 07:25N 38°31' W 008°52'0 0.0
2018-Jun-09 06:58N 38°31' W 008°52'0 0.0
2018-Jun-09 06:28N 38°31' W 008°52'0 0.0
2018-Jun-09 05:58N 38°31' W 008°52'0 0.0
2018-Jun-09 05:28N 38°31' W 008°52'0 0.0
2018-Jun-09 04:58N 38°31' W 008°52'0 0.3
2018-Jun-09 04:31N 38°31' W 008°52'3 5.8
2018-Jun-09 04:00N 38°30' W 008°56'5 9.8
2018-Jun-09 03:30N 38°26' W 008°60'3 6.7
2018-Jun-09 03:00N 38°23' W 009°03'4 8.3
2018-Jun-09 02:30N 38°21' W 009°07'611.1
2018-Jun-09 02:01N 38°19' W 009°14'815.5
2018-Jun-09 01:30N 38°20' W 009°24'815.7
2018-Jun-09 01:00N 38°20' W 009°34'815.6
2018-Jun-09 00:31N 38°20' W 009°43'814.8
2018-Jun-09 00:00N 38°22' W 009°53'815.4
2018-Jun-08 23:30N 38°28' W 009°58'815.3
2018-Jun-08 23:00N 38°35' W 010°03'815.3
2018-Jun-08 22:31N 38°43' W 010°05'815.1
2018-Jun-08 22:01N 38°50' W 010°05'714.9
2018-Jun-08 21:31N 38°58' W 010°06'714.8
2018-Jun-08 21:00N 39°05' W 010°05'714.5
2018-Jun-08 20:31N 39°12' W 010°05'915.4
2018-Jun-08 19:57N 39°21' W 010°05'63415.0
2018-Jun-07 01:38N 49°15' W 004°54'1216.0
2018-Jun-07 00:54N 49°20' W 004°38'615.7
2018-Jun-07 00:30N 49°24' W 004°30'815.5
2018-Jun-07 00:00N 49°28' W 004°20'815.2
2018-Jun-06 23:30N 49°31' W 004°09'815.2
2018-Jun-06 23:00N 49°35' W 003°59'815.1
2018-Jun-06 22:30N 49°39' W 003°49'815.1
2018-Jun-06 22:00N 49°43' W 003°39'815.3
2018-Jun-06 21:30N 49°47' W 003°29'815.6
2018-Jun-06 21:00N 49°51' W 003°19'815.8
2018-Jun-06 20:30N 49°55' W 003°08'816.0
2018-Jun-06 20:01N 49°58' W 002°57'816.6
2018-Jun-06 19:30N 50°00' W 002°44'1117.0
2018-Jun-06 18:50N 50°04' W 002°27'617.3
2018-Jun-06 18:29N 50°06' W 002°18'817.2
2018-Jun-06 18:01N 50°08' W 002°06'917.0
2018-Jun-06 17:31N 50°10' W 001°53'816.7
2018-Jun-06 17:00N 50°12' W 001°41'816.2
2018-Jun-06 16:31N 50°14' W 001°28'815.7
2018-Jun-06 16:01N 50°16' W 001°17'815.1
2018-Jun-06 15:31N 50°19' W 001°05'814.4
2018-Jun-06 14:57N 50°20' W 000°53'614.1
2018-Jun-06 14:30N 50°22' W 000°43'713.8
2018-Jun-06 14:00N 50°24' W 000°33'713.8
2018-Jun-06 13:30N 50°26' W 000°23'714.0
2018-Jun-06 13:00N 50°28' W 000°12'714.2
2018-Jun-06 12:30N 50°29' W 000°01'714.5
2018-Jun-06 12:00N 50°31' E 000°10'714.9
2018-Jun-06 11:31N 50°33' E 000°21'815.4
2018-Jun-06 11:01N 50°36' E 000°32'815.9
2018-Jun-06 10:31N 50°40' E 000°43'816.5
2018-Jun-06 10:01N 50°44' E 000°54'816.6
2018-Jun-06 09:30N 50°49' E 001°05'916.5
2018-Jun-06 08:59N 50°54' E 001°16'816.5
2018-Jun-06 08:30N 50°60' E 001°24'815.8
2018-Jun-06 08:00N 51°06' E 001°33'714.8
2018-Jun-06 07:31N 51°11' E 001°41'714.3
2018-Jun-06 07:00N 51°16' E 001°49'714.2
2018-Jun-06 06:31N 51°22' E 001°55'611.9
2018-Jun-06 06:00N 51°24' E 002°04'815.0
2018-Jun-06 05:30N 51°21' E 002°16'713.8
2018-Jun-06 05:00N 51°22' E 002°26'714.3
2018-Jun-06 04:30N 51°23' E 002°38'713.2
2018-Jun-06 04:00N 51°22' E 002°48'815.8
2018-Jun-06 03:30N 51°24' E 003°01'815.4
2018-Jun-06 03:00N 51°24' E 003°13'815.9
2018-Jun-06 02:30N 51°25' E 003°26'713.1
2018-Jun-06 02:00N 51°26' E 003°36'4 8.8
2018-Jun-06 01:30N 51°25' E 003°43'612.7
2018-Jun-06 01:00N 51°21' E 003°51'  
Track history (hours):
 
Tides and Currents Weather Stations Pressure Air Temp Water Temp Dewpoint Dewpoint Depression Visibility Wind Speed Wind Dir Waves Ship Positions

Lake Kivu

Last reported at 2018-Jun-16 00:41 UTC. Time now 2018-Jun-21 04:45 UTC.
Position N 37°36' E 024°11'.

Length 183 m; draft 8.7 m.

Type: Cargo ship. MMSI: 635961349.

Date/timePositionNaut miles runAvg speedWind from/ knotsBaromVisibWave heightAir tempDewpointWater temp
2018-Jun-16 00:41N 37°36' E 024°11'38515.2
2018-Jun-14 23:18N 37°46' E 016°05'2217.9
2018-Jun-14 22:02N 37°56' E 015°39'218.0
2018-Jun-14 21:56N 37°58' E 015°38'818.1
2018-Jun-14 21:30N 38°05' E 015°35'816.1
2018-Jun-14 21:00N 38°13' E 015°36'713.6
2018-Jun-14 20:30N 38°19' E 015°40'612.0
2018-Jun-14 20:01N 38°25' E 015°37'815.1
2018-Jun-14 19:30N 38°32' E 015°33'815.5
2018-Jun-14 19:00N 38°39' E 015°30'10118.4
2018-Jun-14 13:32N 40°14' E 014°45'117.7
2018-Jun-14 13:30N 40°14' E 014°45'918.3
2018-Jun-14 13:00N 40°23' E 014°44'918.3
2018-Jun-14 12:31N 40°32' E 014°43'4 0.4
2018-Jun-14 02:58N 40°36' E 014°43'5 9.8
2018-Jun-14 02:30N 40°32' E 014°43'1 2.7
2018-Jun-14 02:00N 40°31' E 014°44'0 0.8
2018-Jun-14 01:30N 40°30' E 014°44'0 0.8
2018-Jun-14 01:00N 40°30' E 014°44'0 0.8
2018-Jun-14 00:30N 40°30' E 014°44'0 0.5
2018-Jun-14 00:00N 40°29' E 014°44'0 0.4
2018-Jun-13 23:30N 40°29' E 014°44'0 0.4
2018-Jun-13 22:59N 40°29' E 014°44'0 0.4
2018-Jun-13 22:30N 40°29' E 014°43'0 0.2
2018-Jun-13 22:00N 40°29' E 014°43'0 0.4
2018-Jun-13 21:30N 40°29' E 014°43'0 0.7
2018-Jun-13 21:00N 40°30' E 014°43'0 0.7
2018-Jun-13 20:30N 40°30' E 014°42'0 0.5
2018-Jun-13 20:00N 40°30' E 014°42'0 0.6
2018-Jun-13 19:30N 40°30' E 014°42'0 0.8
2018-Jun-13 19:00N 40°30' E 014°41'1 1.4
2018-Jun-13 18:30N 40°30' E 014°40'1 1.4
2018-Jun-13 18:00N 40°31' E 014°40'1 1.5
2018-Jun-13 17:30N 40°31' E 014°39'1 1.5
2018-Jun-13 17:00N 40°30' E 014°38'1 1.2
2018-Jun-13 16:30N 40°30' E 014°37'1 1.1
2018-Jun-13 15:57N 40°29' E 014°37'1 1.2
2018-Jun-13 15:30N 40°29' E 014°37'3 5.2
2018-Jun-13 15:00N 40°31' E 014°39'613.0
2018-Jun-13 14:30N 40°26' E 014°35'815.7
2018-Jun-13 14:00N 40°18' E 014°31'815.6
2018-Jun-13 13:30N 40°11' E 014°28'714.6
2018-Jun-13 13:00N 40°09' E 014°19'815.7
2018-Jun-13 12:30N 40°08' E 014°09'915.6
2018-Jun-13 11:57N 40°10' E 013°58'715.3
2018-Jun-13 11:30N 40°10' E 013°49'45615.4
2018-Jun-12 05:51N 38°56' E 004°05'2618.6
2018-Jun-12 04:28N 38°58' E 003°32'2018.5
2018-Jun-12 03:23N 38°59' E 003°06'818.2
2018-Jun-12 02:58N 38°60' E 002°56'818.7
2018-Jun-12 02:30N 39°02' E 002°46'918.4
2018-Jun-12 02:00N 39°04' E 002°34'918.4
2018-Jun-12 01:30N 39°06' E 002°23'918.7
2018-Jun-12 01:00N 39°08' E 002°11'1018.8
2018-Jun-12 00:30N 39°10' E 001°59'1018.9
2018-Jun-11 23:59N 39°13' E 001°47'918.7
2018-Jun-11 23:30N 39°15' E 001°35'918.9
2018-Jun-11 23:00N 39°16' E 001°24'1118.9
2018-Jun-11 22:27N 39°18' E 001°10'6518.5
2018-Jun-11 18:55N 39°26' W 000°14'4 9.6
2018-Jun-11 18:30N 39°26' W 000°19'0 0.4
2018-Jun-11 17:57N 39°26' W 000°18'0 0.0
2018-Jun-11 17:24N 39°26' W 000°18'0 0.0
2018-Jun-11 17:00N 39°26' W 000°18'0 0.0
2018-Jun-11 16:27N 39°26' W 000°18'0 0.0
2018-Jun-11 16:00N 39°26' W 000°18'0 0.0
2018-Jun-11 15:27N 39°26' W 000°18'0 0.0
2018-Jun-11 15:00N 39°26' W 000°18'0 0.0
2018-Jun-11 14:27N 39°26' W 000°18'0 0.0
2018-Jun-11 14:00N 39°26' W 000°18'0 0.0
2018-Jun-11 13:30N 39°26' W 000°18'0 0.0
2018-Jun-11 13:00N 39°26' W 000°18'0 0.0
2018-Jun-11 12:30N 39°26' W 000°18'0 0.0
2018-Jun-11 11:57N 39°26' W 000°18'0 0.0
2018-Jun-11 11:30N 39°26' W 000°18'0 0.1
2018-Jun-11 11:00N 39°26' W 000°18'2 4.6
2018-Jun-11 10:30N 39°25' W 000°16'7712.7
2018-Jun-11 04:29N 38°09' W 000°01'816.6
2018-Jun-11 04:00N 38°03' W 000°08'816.7
2018-Jun-11 03:30N 37°55' W 000°13'816.6
2018-Jun-11 03:00N 37°48' W 000°18'816.6
2018-Jun-11 02:30N 37°41' W 000°24'816.3
2018-Jun-11 02:00N 37°35' W 000°30'816.6
2018-Jun-11 01:30N 37°28' W 000°37'816.8
2018-Jun-11 01:00N 37°23' W 000°45'816.6
2018-Jun-11 00:30N 37°17' W 000°53'816.9
2018-Jun-11 00:00N 37°12' W 001°01'816.8
2018-Jun-10 23:31N 37°06' W 001°08'916.8
2018-Jun-10 22:59N 37°00' W 001°17'19416.3
2018-Jun-10 11:05N 36°01' W 005°07'220.4
2018-Jun-10 11:00N 36°01' W 005°09'1020.3
2018-Jun-10 10:31N 35°59' W 005°21'21915.2
2018-Jun-09 20:07N 37°36' W 009°26'219.1
2018-Jun-09 20:00N 37°38' W 009°25'1019.1
2018-Jun-09 19:30N 37°47' W 009°21'1019.3
2018-Jun-09 19:00N 37°55' W 009°16'1019.3
2018-Jun-09 18:30N 38°04' W 009°11'1018.9
2018-Jun-09 18:00N 38°13' W 009°06'918.4
2018-Jun-09 17:30N 38°21' W 009°02'612.3
2018-Jun-09 17:00N 38°27' W 008°58'611.5
2018-Jun-09 16:30N 38°31' W 008°53'1 1.4
2018-Jun-09 15:59N 38°31' W 008°52'0 0.0
2018-Jun-09 15:28N 38°31' W 008°52'0 0.0
2018-Jun-09 14:28N 38°31' W 008°52'0 0.0
2018-Jun-09 13:58N 38°31' W 008°52'0 0.0
2018-Jun-09 13:28N 38°31' W 008°52'0 0.0
2018-Jun-09 12:58N 38°31' W 008°52'0 0.0
2018-Jun-09 12:28N 38°31' W 008°52'0 0.0
2018-Jun-09 11:58N 38°31' W 008°52'0 0.0
2018-Jun-09 11:28N 38°31' W 008°52'0 0.0
2018-Jun-09 10:58N 38°31' W 008°52'0 0.0
2018-Jun-09 10:28N 38°31' W 008°52'0 0.0
2018-Jun-09 09:58N 38°31' W 008°52'0 0.0
2018-Jun-09 09:28N 38°31' W 008°52'0 0.0
2018-Jun-09 08:58N 38°31' W 008°52'0 0.0
2018-Jun-09 08:28N 38°31' W 008°52'0 0.0
2018-Jun-09 07:58N 38°31' W 008°52'0 0.0
2018-Jun-09 07:25N 38°31' W 008°52'0 0.0
2018-Jun-09 06:58N 38°31' W 008°52'0 0.0
2018-Jun-09 06:28N 38°31' W 008°52'0 0.0
2018-Jun-09 05:58N 38°31' W 008°52'0 0.0
2018-Jun-09 05:28N 38°31' W 008°52'0 0.0
2018-Jun-09 04:58N 38°31' W 008°52'0 0.3
2018-Jun-09 04:31N 38°31' W 008°52'3 5.8
2018-Jun-09 04:00N 38°30' W 008°56'5 9.8
2018-Jun-09 03:30N 38°26' W 008°60'3 6.7
2018-Jun-09 03:00N 38°23' W 009°03'4 8.3
2018-Jun-09 02:30N 38°21' W 009°07'611.1
2018-Jun-09 02:01N 38°19' W 009°14'815.5
2018-Jun-09 01:30N 38°20' W 009°24'815.7
2018-Jun-09 01:00N 38°20' W 009°34'815.6
2018-Jun-09 00:31N 38°20' W 009°43'814.8
2018-Jun-09 00:00N 38°22' W 009°53'815.4
2018-Jun-08 23:30N 38°28' W 009°58'815.3
2018-Jun-08 23:00N 38°35' W 010°03'815.3
2018-Jun-08 22:31N 38°43' W 010°05'815.1
2018-Jun-08 22:01N 38°50' W 010°05'714.9
2018-Jun-08 21:31N 38°58' W 010°06'714.8
2018-Jun-08 21:00N 39°05' W 010°05'714.5
2018-Jun-08 20:31N 39°12' W 010°05'915.4
2018-Jun-08 19:57N 39°21' W 010°05'63415.0
2018-Jun-07 01:38N 49°15' W 004°54'1216.0
2018-Jun-07 00:54N 49°20' W 004°38'615.7
2018-Jun-07 00:30N 49°24' W 004°30'815.5
2018-Jun-07 00:00N 49°28' W 004°20'815.2
2018-Jun-06 23:30N 49°31' W 004°09'815.2
2018-Jun-06 23:00N 49°35' W 003°59'815.1
2018-Jun-06 22:30N 49°39' W 003°49'815.1
2018-Jun-06 22:00N 49°43' W 003°39'815.3
2018-Jun-06 21:30N 49°47' W 003°29'815.6
2018-Jun-06 21:00N 49°51' W 003°19'815.8
2018-Jun-06 20:30N 49°55' W 003°08'816.0
2018-Jun-06 20:01N 49°58' W 002°57'816.6
2018-Jun-06 19:30N 50°00' W 002°44'1117.0
2018-Jun-06 18:50N 50°04' W 002°27'617.3
2018-Jun-06 18:29N 50°06' W 002°18'817.2
2018-Jun-06 18:01N 50°08' W 002°06'917.0
2018-Jun-06 17:31N 50°10' W 001°53'816.7
2018-Jun-06 17:00N 50°12' W 001°41'816.2
2018-Jun-06 16:31N 50°14' W 001°28'815.7
2018-Jun-06 16:01N 50°16' W 001°17'815.1
2018-Jun-06 15:31N 50°19' W 001°05'814.4
2018-Jun-06 14:57N 50°20' W 000°53'614.1
2018-Jun-06 14:30N 50°22' W 000°43'713.8
2018-Jun-06 14:00N 50°24' W 000°33'713.8
2018-Jun-06 13:30N 50°26' W 000°23'714.0
2018-Jun-06 13:00N 50°28' W 000°12'714.2
2018-Jun-06 12:30N 50°29' W 000°01'714.5
2018-Jun-06 12:00N 50°31' E 000°10'714.9
2018-Jun-06 11:31N 50°33' E 000°21'815.4
2018-Jun-06 11:01N 50°36' E 000°32'815.9
2018-Jun-06 10:31N 50°40' E 000°43'816.5
2018-Jun-06 10:01N 50°44' E 000°54'816.6
2018-Jun-06 09:30N 50°49' E 001°05'916.5
2018-Jun-06 08:59N 50°54' E 001°16'816.5
2018-Jun-06 08:30N 50°60' E 001°24'815.8
2018-Jun-06 08:00N 51°06' E 001°33'714.8
2018-Jun-06 07:31N 51°11' E 001°41'714.3
2018-Jun-06 07:00N 51°16' E 001°49'714.2
2018-Jun-06 06:31N 51°22' E 001°55'611.9
2018-Jun-06 06:00N 51°24' E 002°04'815.0
2018-Jun-06 05:30N 51°21' E 002°16'713.8
2018-Jun-06 05:00N 51°22' E 002°26'714.3
2018-Jun-06 04:30N 51°23' E 002°38'713.2
2018-Jun-06 04:00N 51°22' E 002°48'815.8
2018-Jun-06 03:30N 51°24' E 003°01'815.4
2018-Jun-06 03:00N 51°24' E 003°13'815.9
2018-Jun-06 02:30N 51°25' E 003°26'713.1
2018-Jun-06 02:00N 51°26' E 003°36'4 8.8
2018-Jun-06 01:30N 51°25' E 003°43'612.7
2018-Jun-06 01:00N 51°21' E 003°51'  

Dump ship's entire track history